Pont Rhyd-y-cyff, United Kingdom
Current Conditions -  °F | °C
As of 5:50 AM on Wednesday 26 Nov 2014 (Local Time) from EGDX Reporting Station
Drizzle Drizzle  
Wind Chill: 42°   Ceiling: 1000
Heat Index: 45°   Visibility: 6mi
Dew Point: 43°   Wind: 5mph
Humidity: 93%   Direction: 10°N
Pressure: 29.88"   Gusts: NA
Location:  51.59°N, 3.64°W
Report Text: EGDX 260550Z AUTO 01004KT 9999 -DZ OVC010/// 07/06 Q1012
Loading
Personal Weather Stations






























Interactive Weather Map New forecast layout! Learn more

10-Day Weather Forecast

Advertisements
Track Severe Weather on mobile